createdAt,value
2023-08-07T00:01:21.615Z,3.40
2023-08-07T00:03:24.741Z,3.80
2023-08-07T00:05:26.944Z,3.90
2023-08-07T00:07:28.866Z,3.30
2023-08-07T00:09:30.545Z,3.80
2023-08-07T00:11:32.628Z,3.70
2023-08-07T00:13:34.361Z,3.90
2023-08-07T00:15:39.139Z,3.80
2023-08-07T00:17:41.032Z,3.80
2023-08-07T00:19:43.010Z,4.40
2023-08-07T00:21:47.046Z,3.80
2023-08-07T00:23:50.960Z,4.50
2023-08-07T00:25:52.891Z,4.50
2023-08-07T00:27:54.776Z,3.80
2023-08-07T00:29:57.658Z,4.30
2023-08-07T00:31:59.919Z,4.40
2023-08-07T00:34:01.728Z,4.00
2023-08-07T00:36:04.321Z,4.50
2023-08-07T00:38:06.199Z,4.90
2023-08-07T00:40:08.806Z,4.20
2023-08-07T00:42:10.480Z,4.30
2023-08-07T00:44:12.248Z,4.90
2023-08-07T00:46:14.335Z,4.80
2023-08-07T00:48:18.774Z,4.50
2023-08-07T00:50:22.766Z,4.50
2023-08-07T00:52:27.320Z,5.40
2023-08-07T00:54:29.241Z,4.50
2023-08-07T00:56:32.299Z,4.30
2023-08-07T00:58:35.179Z,4.40
2023-08-07T01:00:37.259Z,4.80
2023-08-07T01:02:39.313Z,4.30
2023-08-07T01:04:41.194Z,4.50
2023-08-07T01:06:43.486Z,4.40
2023-08-07T01:08:46.890Z,4.80
2023-08-07T01:11:13.240Z,4.20
2023-08-07T01:13:27.319Z,4.70
2023-08-07T01:15:33.116Z,5.00
2023-08-07T01:17:36.079Z,4.40
2023-08-07T01:19:39.346Z,4.80
2023-08-07T01:21:42.026Z,5.00
2023-08-07T01:23:45.271Z,4.80
2023-08-07T01:25:47.469Z,4.90
2023-08-07T01:28:31.774Z,4.70
2023-08-07T01:30:47.695Z,5.10
2023-08-07T01:33:08.731Z,5.60
2023-08-07T01:35:13.639Z,5.10
2023-08-07T01:37:16.711Z,4.60
2023-08-07T01:39:21.098Z,4.70
2023-08-07T01:43:25.169Z,5.00
2023-08-07T01:45:28.838Z,4.60
2023-08-07T01:47:30.643Z,6.20
2023-08-07T01:49:32.411Z,4.80
2023-08-07T01:51:34.430Z,5.00
2023-08-07T01:53:36.223Z,5.90
2023-08-07T01:55:37.864Z,4.50
2023-08-07T01:57:39.738Z,5.10
2023-08-07T01:59:41.423Z,4.60
2023-08-07T02:01:43.180Z,5.20
2023-08-07T02:03:44.914Z,5.20
2023-08-07T02:05:47.700Z,5.30
2023-08-07T02:07:49.440Z,4.80
2023-08-07T02:09:51.202Z,5.50
2023-08-07T02:11:52.900Z,5.20
2023-08-07T02:13:54.848Z,5.60
2023-08-07T02:15:56.534Z,5.10
2023-08-07T02:17:58.473Z,4.90
2023-08-07T02:20:00.241Z,5.00
2023-08-07T02:22:02.863Z,5.40
2023-08-07T02:24:05.123Z,5.40
2023-08-07T02:26:06.786Z,6.00
2023-08-07T02:28:08.763Z,6.40
2023-08-07T02:30:11.266Z,6.10
2023-08-07T02:32:13.086Z,5.60
2023-08-07T02:34:14.756Z,6.10
2023-08-07T02:36:16.711Z,6.60
2023-08-07T02:38:18.402Z,6.00
2023-08-07T02:40:21.035Z,6.50
2023-08-07T02:42:22.704Z,5.70
2023-08-07T02:44:24.650Z,5.70
2023-08-07T02:46:26.862Z,6.00
2023-08-07T02:48:28.500Z,5.10
2023-08-07T02:50:33.761Z,5.70
2023-08-07T02:52:35.671Z,4.80
2023-08-07T02:54:37.524Z,6.50
2023-08-07T02:56:39.160Z,5.70
2023-08-07T02:58:40.845Z,5.90
2023-08-07T03:00:44.235Z,7.10
2023-08-07T03:02:46.179Z,6.10
2023-08-07T03:04:48.213Z,6.20
2023-08-07T03:06:50.160Z,7.70
2023-08-07T03:08:52.856Z,7.10
2023-08-07T03:10:56.969Z,6.80
2023-08-07T03:12:59.561Z,7.10
2023-08-07T03:15:02.033Z,6.30
2023-08-07T03:17:04.052Z,6.60
2023-08-07T03:19:06.072Z,5.10
2023-08-07T03:21:08.415Z,5.40
2023-08-07T03:23:11.292Z,5.60
2023-08-07T03:25:13.028Z,4.30
2023-08-07T03:27:15.685Z,6.00
2023-08-07T03:29:18.092Z,5.10
2023-08-07T03:31:20.466Z,5.80
2023-08-07T03:33:22.332Z,5.10
2023-08-07T03:35:24.118Z,5.70
2023-08-07T03:37:25.778Z,5.80
2023-08-07T03:39:27.547Z,5.80
2023-08-07T03:41:31.390Z,8.80
2023-08-07T03:43:33.216Z,8.50
2023-08-07T03:45:35.292Z,8.10
2023-08-07T03:47:37.035Z,7.30
2023-08-07T03:49:38.986Z,8.80
2023-08-07T03:51:40.835Z,7.40
2023-08-07T03:53:43.683Z,7.30
2023-08-07T03:55:51.431Z,7.70
2023-08-07T03:57:53.257Z,6.50
2023-08-07T03:59:55.637Z,7.70
2023-08-07T04:01:57.901Z,7.90
2023-08-07T04:03:59.571Z,7.50
2023-08-07T04:06:06.842Z,7.60
2023-08-07T04:08:08.863Z,6.90
2023-08-07T04:10:10.767Z,5.40
2023-08-07T04:12:12.440Z,5.90
2023-08-07T04:14:15.412Z,6.70
2023-08-07T04:16:18.267Z,5.80
2023-08-07T04:18:20.669Z,6.30
2023-08-07T04:20:22.519Z,6.20
2023-08-07T04:22:25.820Z,7.80
2023-08-07T04:24:27.498Z,5.10
2023-08-07T04:26:29.196Z,7.30
2023-08-07T04:28:31.111Z,5.80
2023-08-07T04:30:32.788Z,6.00
2023-08-07T04:32:34.783Z,7.10
2023-08-07T04:34:36.662Z,6.20
2023-08-07T04:36:38.390Z,6.00
2023-08-07T04:38:40.125Z,7.70
2023-08-07T04:40:49.001Z,6.60
2023-08-07T04:42:51.664Z,5.60
2023-08-07T04:44:53.527Z,6.00
2023-08-07T04:46:55.502Z,6.30
2023-08-07T04:48:57.550Z,6.50
2023-08-07T04:50:59.562Z,6.50
2023-08-07T04:53:01.627Z,6.20
2023-08-07T04:55:03.282Z,5.20
2023-08-07T04:57:05.000Z,7.20
2023-08-07T04:59:06.655Z,6.30
2023-08-07T05:01:10.355Z,5.90
2023-08-07T05:03:12.503Z,7.60
2023-08-07T05:05:15.960Z,7.00
2023-08-07T05:07:17.710Z,6.40
2023-08-07T05:09:20.838Z,7.40
2023-08-07T05:11:22.587Z,6.30
2023-08-07T05:13:26.538Z,6.40
2023-08-07T05:15:29.694Z,6.00
2023-08-07T05:17:32.641Z,6.10
2023-08-07T05:19:34.375Z,6.60
2023-08-07T05:21:36.110Z,6.70
2023-08-07T05:23:39.910Z,5.30
2023-08-07T05:25:41.632Z,5.80
2023-08-07T05:27:44.370Z,6.90
2023-08-07T05:29:46.244Z,6.00
2023-08-07T05:31:50.220Z,6.40
2023-08-07T05:33:52.451Z,6.20
2023-08-07T05:35:54.175Z,6.10
2023-08-07T05:37:55.867Z,6.20
2023-08-07T05:39:57.856Z,6.20
2023-08-07T05:42:00.321Z,6.00
2023-08-07T05:44:02.019Z,5.70
2023-08-07T05:46:03.927Z,5.00
2023-08-07T05:48:08.135Z,5.80
2023-08-07T05:50:10.221Z,6.40
2023-08-07T05:52:11.881Z,6.10
2023-08-07T05:54:13.644Z,5.60
2023-08-07T05:56:15.612Z,5.50
2023-08-07T05:58:17.751Z,4.60
2023-08-07T06:00:20.914Z,5.00
2023-08-07T06:02:22.570Z,5.30
2023-08-07T06:04:24.732Z,5.10
2023-08-07T06:06:30.296Z,4.20
2023-08-07T06:08:32.228Z,5.30
2023-08-07T06:10:33.922Z,5.10
2023-08-07T06:12:36.053Z,5.00
2023-08-07T06:14:38.732Z,4.80
2023-08-07T06:16:40.422Z,5.80
2023-08-07T06:18:42.267Z,4.80
2023-08-07T06:20:44.198Z,5.50
2023-08-07T06:22:46.138Z,5.80
2023-08-07T06:24:48.199Z,5.10
2023-08-07T06:26:50.949Z,4.90
2023-08-07T06:28:53.043Z,5.80
2023-08-07T06:30:54.901Z,6.00
2023-08-07T06:32:56.585Z,6.00
2023-08-07T06:34:58.946Z,5.30
2023-08-07T06:37:00.620Z,6.10
2023-08-07T06:39:03.660Z,6.10
2023-08-07T06:41:05.657Z,5.70
2023-08-07T06:43:07.838Z,5.50
2023-08-07T06:45:10.253Z,5.50
2023-08-07T06:47:12.241Z,5.40
2023-08-07T06:49:14.314Z,5.40
2023-08-07T06:51:16.966Z,5.70
2023-08-07T06:53:19.324Z,5.60
2023-08-07T06:55:21.501Z,4.90
2023-08-07T06:57:23.532Z,4.90
2023-08-07T06:59:27.357Z,4.70
2023-08-07T07:01:29.334Z,4.40
2023-08-07T07:03:31.199Z,4.80
2023-08-07T07:05:34.168Z,4.40
2023-08-07T07:07:36.740Z,4.60
2023-08-07T07:09:38.496Z,4.10
2023-08-07T07:11:40.130Z,3.80
2023-08-07T07:13:42.741Z,5.40
2023-08-07T07:15:44.440Z,4.40
2023-08-07T07:17:46.288Z,3.90
2023-08-07T07:19:48.385Z,4.40
2023-08-07T07:21:51.683Z,4.10
2023-08-07T07:23:53.627Z,4.70
2023-08-07T07:25:55.783Z,4.00
2023-08-07T07:27:57.544Z,4.30
2023-08-07T07:29:59.412Z,5.20
2023-08-07T07:32:01.288Z,4.70
2023-08-07T07:34:03.337Z,5.20
2023-08-07T07:36:05.291Z,5.20
2023-08-07T07:38:08.389Z,5.40
2023-08-07T07:40:12.896Z,5.60
2023-08-07T07:42:14.535Z,6.00
2023-08-07T07:44:16.448Z,5.70
2023-08-07T07:46:19.585Z,6.10
2023-08-07T07:48:21.366Z,5.10
2023-08-07T07:50:23.660Z,5.80
2023-08-07T07:52:25.338Z,5.40
2023-08-07T07:54:27.300Z,5.40
2023-08-07T07:56:29.083Z,5.20
2023-08-07T07:58:31.381Z,5.00
2023-08-07T08:00:33.463Z,5.20
2023-08-07T08:02:35.258Z,4.80
2023-08-07T08:04:37.024Z,4.20
2023-08-07T08:06:39.944Z,4.70
2023-08-07T08:08:43.706Z,4.30
2023-08-07T08:10:49.314Z,4.00
2023-08-07T08:12:51.205Z,4.70
2023-08-07T08:14:56.237Z,4.20
2023-08-07T08:16:58.821Z,4.00
2023-08-07T08:19:00.905Z,4.60
2023-08-07T08:21:02.721Z,4.10
2023-08-07T08:23:05.920Z,4.10
2023-08-07T08:25:08.261Z,4.90
2023-08-07T08:27:10.013Z,5.50
2023-08-07T08:29:15.878Z,4.20
2023-08-07T08:31:17.907Z,4.10
2023-08-07T08:33:19.880Z,4.00
2023-08-07T08:35:22.384Z,4.70
2023-08-07T08:37:24.031Z,4.40
2023-08-07T08:39:25.902Z,3.90
2023-08-07T08:41:28.213Z,3.70
2023-08-07T08:43:33.635Z,3.50
2023-08-07T08:45:39.272Z,3.30
2023-08-07T08:47:42.724Z,4.10
2023-08-07T08:49:50.120Z,3.90
2023-08-07T08:51:52.288Z,4.00
2023-08-07T08:53:55.136Z,3.60
2023-08-07T08:55:56.900Z,3.70
2023-08-07T08:58:01.939Z,4.20
2023-08-07T09:00:19.299Z,3.80
2023-08-07T09:02:21.611Z,3.90
2023-08-07T09:04:23.352Z,4.00
2023-08-07T09:06:27.113Z,3.50
2023-08-07T09:08:32.667Z,4.00
2023-08-07T09:10:35.710Z,3.90
2023-08-07T09:13:01.431Z,3.40
2023-08-07T09:15:06.005Z,3.80
2023-08-07T09:17:08.239Z,4.30
2023-08-07T09:19:09.892Z,4.10
2023-08-07T09:21:11.869Z,3.70
2023-08-07T09:23:14.271Z,3.90
2023-08-07T09:25:16.178Z,3.10
2023-08-07T09:27:18.456Z,2.80
2023-08-07T09:29:22.380Z,2.60
2023-08-07T09:31:27.726Z,1.70
2023-08-07T09:33:31.502Z,2.00
2023-08-07T09:35:34.557Z,3.10
2023-08-07T09:37:38.337Z,3.70
2023-08-07T09:39:41.502Z,4.20
2023-08-07T09:41:43.286Z,4.80
2023-08-07T09:43:45.115Z,4.90
2023-08-07T09:45:46.984Z,5.60
2023-08-07T09:48:08.016Z,6.00
2023-08-07T09:50:18.019Z,6.70
2023-08-07T09:52:20.043Z,7.10
2023-08-07T09:54:21.865Z,8.40
2023-08-07T09:56:23.618Z,8.80
2023-08-07T09:58:25.663Z,7.40
2023-08-07T10:00:27.421Z,7.40
2023-08-07T10:02:30.215Z,7.70
2023-08-07T10:04:32.270Z,8.40
2023-08-07T10:06:35.181Z,7.10
2023-08-07T10:08:37.720Z,6.50
2023-08-07T10:10:40.305Z,6.10
2023-08-07T10:12:42.727Z,6.00
2023-08-07T10:14:46.229Z,6.40
2023-08-07T10:16:48.870Z,6.20
2023-08-07T10:18:50.608Z,5.50
2023-08-07T10:20:52.801Z,6.50
2023-08-07T10:23:01.025Z,5.50
2023-08-07T10:25:04.145Z,5.90
2023-08-07T10:27:08.000Z,5.00
2023-08-07T10:29:14.297Z,4.90
2023-08-07T10:31:16.390Z,4.60
2023-08-07T10:33:21.606Z,4.20
2023-08-07T10:35:33.807Z,4.20
2023-08-07T10:37:43.586Z,5.00
2023-08-07T10:40:05.767Z,4.30
2023-08-07T10:42:07.657Z,4.30
2023-08-07T10:44:26.312Z,4.60
2023-08-07T10:48:23.098Z,4.00
2023-08-07T10:50:35.791Z,4.00
2023-08-07T10:52:40.841Z,4.00
2023-08-07T10:54:47.677Z,4.80
2023-08-07T10:56:56.841Z,4.10
2023-08-07T10:58:59.238Z,5.00
2023-08-07T11:01:21.070Z,4.30
2023-08-07T11:03:29.283Z,4.00
2023-08-07T11:05:32.174Z,3.80
2023-08-07T11:07:34.869Z,3.60
2023-08-07T11:09:37.270Z,3.60
2023-08-07T11:11:47.388Z,3.30
2023-08-07T11:13:49.320Z,3.10
2023-08-07T11:15:51.230Z,2.20
2023-08-07T11:17:54.128Z,2.00
2023-08-07T11:19:57.448Z,2.40
2023-08-07T11:21:59.222Z,1.50
2023-08-07T11:24:02.364Z,1.90
2023-08-07T11:26:04.668Z,1.00
2023-08-07T11:28:06.433Z,1.80
2023-08-07T11:30:12.922Z,1.40
2023-08-07T11:32:15.354Z,1.10
2023-08-07T11:34:19.467Z,1.00
2023-08-07T11:36:22.392Z,1.80
2023-08-07T11:38:52.612Z,1.10
2023-08-07T11:40:56.985Z,1.00
2023-08-07T11:42:58.989Z,1.20
2023-08-07T11:45:00.748Z,1.20
2023-08-07T11:47:03.707Z,1.30
2023-08-07T11:49:06.016Z,1.20
2023-08-07T11:51:10.791Z,1.00
2023-08-07T11:53:14.076Z,1.30
2023-08-07T11:55:16.220Z,1.40
2023-08-07T11:57:19.335Z,0.90
2023-08-07T11:59:21.401Z,0.70
2023-08-07T12:01:24.120Z,0.90
2023-08-07T12:03:31.172Z,0.90
2023-08-07T12:05:42.128Z,0.70
2023-08-07T12:07:44.166Z,1.20
2023-08-07T12:09:46.343Z,1.30
2023-08-07T12:11:48.187Z,1.90
2023-08-07T12:13:51.131Z,1.20
2023-08-07T12:15:55.115Z,1.10
2023-08-07T12:18:03.181Z,0.60
2023-08-07T12:20:08.603Z,0.80
2023-08-07T12:22:12.274Z,0.40
2023-08-07T12:24:14.596Z,0.70
2023-08-07T12:26:17.605Z,0.50
2023-08-07T12:28:19.757Z,0.30
2023-08-07T12:30:21.840Z,0.90
2023-08-07T12:32:23.671Z,0.40
2023-08-07T12:36:30.542Z,0.30
2023-08-07T12:38:32.271Z,0.30
2023-08-07T12:40:38.079Z,1.30
2023-08-07T12:42:41.995Z,0.20
2023-08-07T12:44:44.755Z,0.20
2023-08-07T12:46:49.987Z,0.10
2023-08-07T12:48:51.806Z,0.20
2023-08-07T12:50:54.042Z,0.10
2023-08-07T12:52:57.097Z,0.10
2023-08-07T12:54:58.750Z,0.10
2023-08-07T12:57:00.368Z,0.10
2023-08-07T12:59:02.458Z,0.10
2023-08-07T13:01:05.858Z,0.30
2023-08-07T13:03:07.526Z,0.00
2023-08-07T13:05:10.568Z,0.10
2023-08-07T13:07:12.521Z,0.10
2023-08-07T13:09:15.383Z,0.30
2023-08-07T13:11:17.333Z,0.10
2023-08-07T13:13:19.083Z,0.00
2023-08-07T13:15:20.953Z,0.00
2023-08-07T13:17:23.646Z,0.00
2023-08-07T13:19:25.394Z,0.10
2023-08-07T13:21:27.128Z,0.00
2023-08-07T13:23:30.074Z,0.20
2023-08-07T13:25:31.870Z,0.20
2023-08-07T13:27:34.323Z,0.10
2023-08-07T13:29:36.852Z,0.10
2023-08-07T13:31:38.768Z,0.10
2023-08-07T13:33:40.626Z,0.10
2023-08-07T13:35:42.524Z,0.10
2023-08-07T13:37:44.340Z,0.10
2023-08-07T13:39:46.133Z,0.20
2023-08-07T13:41:48.519Z,0.30
2023-08-07T13:43:50.176Z,0.10
2023-08-07T13:45:54.838Z,0.10
2023-08-07T13:47:56.566Z,0.10
2023-08-07T13:49:59.404Z,0.10
2023-08-07T13:52:01.235Z,0.20
2023-08-07T13:54:02.869Z,0.00
2023-08-07T13:56:05.024Z,0.10
2023-08-07T13:58:07.103Z,0.10
2023-08-07T14:00:09.782Z,0.10
2023-08-07T14:02:11.709Z,0.10
2023-08-07T14:04:14.720Z,0.10
2023-08-07T14:06:18.025Z,0.10
2023-08-07T14:08:19.672Z,0.20
2023-08-07T14:10:21.620Z,0.10
2023-08-07T14:12:23.238Z,0.20
2023-08-07T14:14:25.144Z,0.30
2023-08-07T14:16:27.315Z,0.20
2023-08-07T14:18:29.123Z,0.20
2023-08-07T14:20:30.793Z,0.10
2023-08-07T14:22:33.380Z,0.10
2023-08-07T14:24:35.537Z,0.10
2023-08-07T14:26:37.389Z,0.10
2023-08-07T14:28:39.032Z,0.10
2023-08-07T14:30:41.393Z,0.10
2023-08-07T14:32:48.123Z,0.20
2023-08-07T14:34:50.456Z,0.10
2023-08-07T14:36:53.330Z,0.10
2023-08-07T14:38:56.519Z,0.10
2023-08-07T14:41:01.392Z,0.10
2023-08-07T14:43:03.541Z,0.10
2023-08-07T14:45:06.864Z,0.10
2023-08-07T14:47:08.968Z,0.10
2023-08-07T14:49:10.898Z,0.10
2023-08-07T14:51:12.915Z,0.20
2023-08-07T14:53:16.351Z,0.20
2023-08-07T14:55:19.284Z,0.10
2023-08-07T14:57:20.904Z,0.20
2023-08-07T14:59:22.652Z,0.10
2023-08-07T15:01:25.921Z,0.10
2023-08-07T15:03:27.727Z,0.10
2023-08-07T15:05:29.459Z,0.30
2023-08-07T15:07:31.238Z,0.10
2023-08-07T15:09:32.975Z,0.10
2023-08-07T15:11:34.805Z,0.10
2023-08-07T15:13:36.704Z,0.10
2023-08-07T15:15:38.439Z,0.10
2023-08-07T15:17:40.225Z,0.30
2023-08-07T15:19:41.904Z,0.10
2023-08-07T15:21:43.971Z,0.10
2023-08-07T15:23:46.072Z,0.20
2023-08-07T15:25:48.884Z,0.20
2023-08-07T15:27:50.648Z,0.10
2023-08-07T15:29:54.231Z,0.10
2023-08-07T15:31:56.175Z,0.00
2023-08-07T15:33:59.452Z,0.00
2023-08-07T15:36:01.245Z,0.00
2023-08-07T15:38:02.928Z,0.00
2023-08-07T15:40:05.120Z,0.10
2023-08-07T15:42:07.275Z,0.10
2023-08-07T15:44:10.186Z,0.10
2023-08-07T15:46:11.994Z,0.00
2023-08-07T15:48:14.123Z,0.00
2023-08-07T15:50:16.209Z,0.10
2023-08-07T15:52:19.556Z,0.10
2023-08-07T15:54:23.830Z,0.00
2023-08-07T15:56:25.725Z,0.00
2023-08-07T15:58:28.135Z,0.10
2023-08-07T16:00:31.353Z,0.10
2023-08-07T16:02:33.157Z,0.40
2023-08-07T16:04:38.249Z,0.00
2023-08-07T16:08:42.041Z,0.10
2023-08-07T16:10:43.876Z,0.10
2023-08-07T16:12:45.823Z,0.10
2023-08-07T16:14:49.496Z,0.10
2023-08-07T16:16:53.167Z,0.10
2023-08-07T16:18:55.133Z,0.10
2023-08-07T16:20:57.730Z,0.10
2023-08-07T16:22:59.408Z,0.10
2023-08-07T16:25:01.766Z,1.20
2023-08-07T16:27:03.996Z,0.20
2023-08-07T16:29:05.916Z,0.30
2023-08-07T16:31:07.667Z,0.10
2023-08-07T16:33:10.882Z,7.40
2023-08-07T16:35:14.285Z,2.20
2023-08-07T16:37:17.672Z,0.30
2023-08-07T16:39:19.369Z,0.40
2023-08-07T16:41:21.782Z,0.40
2023-08-07T16:43:23.488Z,0.10
2023-08-07T16:45:26.370Z,0.10
2023-08-07T16:47:29.152Z,0.10
2023-08-07T16:49:30.882Z,0.10
2023-08-07T16:51:35.685Z,0.10
2023-08-07T16:55:39.051Z,0.20
2023-08-07T16:57:40.782Z,0.10
2023-08-07T16:59:42.544Z,0.10
2023-08-07T17:01:45.285Z,0.20
2023-08-07T17:03:47.634Z,0.10
2023-08-07T17:05:49.838Z,0.20
2023-08-07T17:07:51.497Z,0.10
2023-08-07T17:09:53.686Z,0.10
2023-08-07T17:11:55.551Z,0.10
2023-08-07T17:13:59.397Z,0.20
2023-08-07T17:16:01.238Z,0.20
2023-08-07T17:18:04.282Z,0.10
2023-08-07T17:20:07.140Z,0.10
2023-08-07T17:22:09.178Z,0.20
2023-08-07T17:24:11.104Z,0.20
2023-08-07T17:26:12.738Z,0.30
2023-08-07T17:28:14.447Z,0.20
2023-08-07T17:30:16.100Z,0.10
2023-08-07T17:32:17.806Z,0.10
2023-08-07T17:34:20.738Z,0.10
2023-08-07T17:36:22.900Z,0.30
2023-08-07T17:38:24.819Z,0.10
2023-08-07T17:40:26.813Z,0.10
2023-08-07T17:42:28.600Z,0.10
2023-08-07T17:44:30.309Z,0.10
2023-08-07T17:46:34.063Z,0.20
2023-08-07T17:48:36.059Z,0.10
2023-08-07T17:50:38.540Z,0.10
2023-08-07T17:52:40.610Z,0.10
2023-08-07T17:54:42.384Z,0.10
2023-08-07T17:56:44.250Z,0.20
2023-08-07T17:58:48.264Z,0.10
2023-08-07T18:00:50.347Z,0.20
2023-08-07T18:02:52.320Z,0.30
2023-08-07T18:04:54.085Z,0.10
2023-08-07T18:06:56.441Z,0.10
2023-08-07T18:08:59.025Z,0.10
2023-08-07T18:11:00.963Z,0.10
2023-08-07T18:13:02.877Z,0.10
2023-08-07T18:15:06.055Z,0.10
2023-08-07T18:17:10.669Z,0.10
2023-08-07T18:21:17.047Z,0.20
2023-08-07T18:23:21.284Z,0.10
2023-08-07T18:25:23.124Z,0.40
2023-08-07T18:27:26.224Z,0.10
2023-08-07T18:29:28.235Z,0.10
2023-08-07T18:31:33.191Z,0.20
2023-08-07T18:33:34.921Z,0.20
2023-08-07T18:35:36.864Z,0.10
2023-08-07T18:37:38.770Z,0.30
2023-08-07T18:39:42.704Z,0.20
2023-08-07T18:41:45.052Z,0.20
2023-08-07T18:43:49.140Z,0.20
2023-08-07T18:45:50.907Z,0.10
2023-08-07T18:47:53.846Z,0.10
2023-08-07T18:49:55.571Z,0.20
2023-08-07T18:51:57.232Z,0.20
2023-08-07T18:53:59.109Z,1.00
2023-08-07T18:56:01.190Z,0.10
2023-08-07T18:58:03.068Z,0.30
2023-08-07T19:00:07.280Z,0.30
2023-08-07T19:02:09.048Z,0.10
2023-08-07T19:04:11.465Z,0.20
2023-08-07T19:06:13.703Z,0.10
2023-08-07T19:08:15.442Z,0.10
2023-08-07T19:10:17.387Z,0.20
2023-08-07T19:12:19.282Z,0.10
2023-08-07T19:14:23.338Z,0.10
2023-08-07T19:16:25.393Z,0.20
2023-08-07T19:18:27.555Z,0.10
2023-08-07T19:20:29.234Z,0.20
2023-08-07T19:22:31.744Z,0.40
2023-08-07T19:24:33.702Z,0.10
2023-08-07T19:26:35.613Z,0.10
2023-08-07T19:28:37.351Z,0.20
2023-08-07T19:30:40.699Z,0.20
2023-08-07T19:32:49.331Z,0.20
2023-08-07T19:34:51.105Z,0.20
2023-08-07T19:36:52.836Z,0.10
2023-08-07T19:38:55.104Z,0.20
2023-08-07T19:40:58.311Z,0.20
2023-08-07T19:43:00.185Z,0.20
2023-08-07T19:45:02.250Z,0.10
2023-08-07T19:47:04.430Z,0.30
2023-08-07T19:49:06.056Z,0.30
2023-08-07T19:51:07.714Z,0.20
2023-08-07T19:53:10.104Z,0.30
2023-08-07T19:55:12.252Z,0.30
2023-08-07T19:57:14.224Z,0.20
2023-08-07T19:59:16.105Z,0.20
2023-08-07T20:01:19.000Z,0.50
2023-08-07T20:03:20.779Z,0.30
2023-08-07T20:05:22.966Z,0.30
2023-08-07T20:07:24.866Z,0.70
2023-08-07T20:09:26.778Z,0.30
2023-08-07T20:11:29.249Z,0.70
2023-08-07T20:13:31.116Z,0.40
2023-08-07T20:15:32.951Z,0.30
2023-08-07T20:17:34.691Z,0.20
2023-08-07T20:19:36.500Z,0.20
2023-08-07T20:21:38.758Z,0.40
2023-08-07T20:23:40.487Z,0.20
2023-08-07T20:25:42.965Z,0.30
2023-08-07T20:27:47.158Z,0.40
2023-08-07T20:29:48.833Z,0.30
2023-08-07T20:31:50.814Z,0.20
2023-08-07T20:33:52.549Z,0.20
2023-08-07T20:35:54.279Z,0.30
2023-08-07T20:37:56.640Z,0.30
2023-08-07T20:40:00.411Z,0.30
2023-08-07T20:42:02.103Z,0.20
2023-08-07T20:44:05.829Z,0.80
2023-08-07T20:46:07.554Z,1.90
2023-08-07T20:48:09.434Z,0.70
2023-08-07T20:50:11.897Z,1.00
2023-08-07T20:52:13.754Z,0.90
2023-08-07T20:54:15.442Z,1.00
2023-08-07T20:56:17.379Z,3.30
2023-08-07T20:58:19.014Z,5.60
2023-08-07T21:00:20.816Z,1.60
2023-08-07T21:02:24.705Z,3.60
2023-08-07T21:04:27.152Z,5.70
2023-08-07T21:06:29.514Z,3.10
2023-08-07T21:08:31.149Z,2.90
2023-08-07T21:10:33.347Z,1.20
2023-08-07T21:12:37.063Z,1.80
2023-08-07T21:14:38.774Z,1.70
2023-08-07T21:16:44.945Z,1.30
2023-08-07T21:18:46.758Z,1.20
2023-08-07T21:20:48.574Z,0.30
2023-08-07T21:22:50.417Z,0.50
2023-08-07T21:24:52.189Z,0.80
2023-08-07T21:26:54.039Z,0.40
2023-08-07T21:28:55.644Z,0.30
2023-08-07T21:30:57.432Z,0.50
2023-08-07T21:32:59.273Z,0.20
2023-08-07T21:35:01.053Z,0.40
2023-08-07T21:37:02.694Z,0.30
2023-08-07T21:39:04.390Z,0.40
2023-08-07T21:41:06.200Z,0.50
2023-08-07T21:43:08.569Z,0.20
2023-08-07T21:45:13.288Z,0.30
2023-08-07T21:49:16.520Z,0.20
2023-08-07T21:51:18.238Z,0.60
2023-08-07T21:53:20.008Z,0.40
2023-08-07T21:55:21.860Z,0.50
2023-08-07T21:57:23.759Z,0.60
2023-08-07T21:59:25.910Z,0.30
2023-08-07T22:01:27.576Z,0.30
2023-08-07T22:03:29.453Z,0.50
2023-08-07T22:05:31.265Z,0.60
2023-08-07T22:07:33.089Z,0.60
2023-08-07T22:09:35.109Z,0.40
2023-08-07T22:11:37.327Z,0.50
2023-08-07T22:13:39.380Z,0.70
2023-08-07T22:15:41.021Z,0.30
2023-08-07T22:17:42.876Z,1.40
2023-08-07T22:19:59.075Z,0.70
2023-08-07T22:22:06.356Z,0.30
2023-08-07T22:24:09.241Z,0.80
2023-08-07T22:26:11.078Z,0.30
2023-08-07T22:28:12.870Z,0.50
2023-08-07T22:30:16.013Z,0.70
2023-08-07T22:32:17.815Z,0.40
2023-08-07T22:34:21.132Z,0.90
2023-08-07T22:36:23.011Z,0.90
2023-08-07T22:38:24.641Z,0.60
2023-08-07T22:40:26.325Z,0.30
2023-08-07T22:42:28.009Z,1.10
2023-08-07T22:44:30.263Z,0.40
2023-08-07T22:46:32.241Z,0.30
2023-08-07T22:48:33.919Z,0.80
2023-08-07T22:50:35.900Z,0.30
2023-08-07T22:52:40.180Z,0.40
2023-08-07T22:54:42.008Z,0.60
2023-08-07T22:56:43.770Z,0.30
2023-08-07T22:58:45.423Z,0.20
2023-08-07T23:00:47.274Z,0.20
2023-08-07T23:05:10.990Z,0.30
2023-08-07T23:07:12.664Z,0.40
2023-08-07T23:09:14.325Z,1.00
2023-08-07T23:11:15.983Z,0.90
2023-08-07T23:13:17.658Z,1.10
2023-08-07T23:15:20.851Z,0.40
2023-08-07T23:17:22.546Z,0.80
2023-08-07T23:19:24.264Z,0.30
2023-08-07T23:21:26.003Z,0.50
2023-08-07T23:23:27.729Z,0.40
2023-08-07T23:25:29.352Z,0.20
2023-08-07T23:27:31.583Z,0.40
2023-08-07T23:29:34.132Z,0.40
2023-08-07T23:31:36.553Z,0.20
2023-08-07T23:33:38.369Z,0.80
2023-08-07T23:35:40.135Z,0.70
2023-08-07T23:37:41.826Z,0.90
2023-08-07T23:39:43.565Z,0.60
2023-08-07T23:41:45.285Z,0.50
2023-08-07T23:43:46.949Z,0.30
2023-08-07T23:45:48.641Z,0.30
2023-08-07T23:47:50.423Z,0.20
2023-08-07T23:49:52.139Z,0.70
2023-08-07T23:51:53.821Z,0.60
2023-08-07T23:53:55.509Z,0.40
2023-08-07T23:55:57.149Z,0.40
2023-08-07T23:57:58.847Z,0.30
